Lamesa, Texas
Current Conditions -  °F | °C
As of 9:15 AM on Thursday 23 Oct 2014 (Local Time) from KGNC Reporting Station
Moderate Fog Moderate Fog  
Wind Chill: 56°   Ceiling: 100
Heat Index: 56°   Visibility: 0mi
Dew Point: 56°   Wind: 0mph
Humidity: 99%   Direction: NA
Pressure: 30.18"   Gusts: NA
Location:  32.74°N, 101.95°W
Report Text: KGNC 231415Z AUTO 00000KT M1/4SM FG OVC001 13/13 A3018 RMK AO2 T01320131
Loading
Personal Weather Stations






























Interactive Weather Map
Tropical Storm Tracking
New forecast layout! Learn more

10-Day Weather Forecast

Advertisements
Track Severe Weather on mobile